Time;durP1;ratioP1;P1;durP2;ratioP2;P2;SDS_P1;SDS_P2;PMS_P1;PMS_P2;Temp;Humidity;BMP_temperature;BMP_pressure;BME280_temperature;BME280_humidity;BME280_pressure;Samples;Min_cycle;Max_cycle;Signal;HPM_P1;HPM_P2
2023/02/15 00:00:17;;;;;;;75.03;29.98;;;;;;;-1.59;100.00;102418.72;5008206;28;20413;-72
2023/02/15 00:02:43;;;;;;;93.05;33.72;;;;;;;-1.55;100.00;102417.69;5002481;28;20048;-72
2023/02/15 00:05:08;;;;;;;113.82;40.58;;;;;;;-1.40;100.00;102426.03;5004540;28;20033;-72
2023/02/15 00:07:34;;;;;;;108.88;37.08;;;;;;;-1.27;100.00;102443.97;5021277;28;20071;-72
2023/02/15 00:09:59;;;;;;;106.30;36.40;;;;;;;-1.31;100.00;102442.34;5021605;28;20715;-72
2023/02/15 00:12:25;;;;;;;250.52;45.60;;;;;;;-1.36;100.00;102446.88;5000125;28;20037;-72
2023/02/15 00:14:50;;;;;;;95.07;35.15;;;;;;;-1.45;100.00;102439.28;5007213;28;20038;-72
2023/02/15 00:17:15;;;;;;;100.50;34.38;;;;;;;-1.52;100.00;102435.13;5022508;28;20398;-72
2023/02/15 00:19:41;;;;;;;107.80;37.20;;;;;;;-1.56;100.00;102436.09;5002478;28;20072;-72
2023/02/15 00:22:07;;;;;;;100.88;36.08;;;;;;;-1.58;100.00;102430.88;5006036;28;20037;-72
2023/02/15 00:24:32;;;;;;;99.30;34.03;;;;;;;-1.63;100.00;102424.91;5003118;28;20026;-72
2023/02/15 00:26:58;;;;;;;106.07;37.10;;;;;;;-1.66;100.00;102432.88;5021268;28;20048;-72
2023/02/15 00:29:23;;;;;;;91.97;35.15;;;;;;;-1.68;100.00;102428.59;5004815;28;20034;-72
2023/02/15 00:31:49;;;;;;;102.32;33.78;;;;;;;-1.70;100.00;102426.84;5001949;28;20065;-72
2023/02/15 00:34:22;;;;;;;;;;;;;;;-1.71;100.00;102427.75;4988774;28;20173;-72
2023/02/15 00:36:49;;;;;;;116.88;38.70;;;;;;;-1.68;100.00;102429.44;5003139;28;19921;-72
2023/02/15 00:39:15;;;;;;;105.97;36.47;;;;;;;-1.67;100.00;102419.81;5004487;28;20017;-72
2023/02/15 00:41:40;;;;;;;;;;;;;;;-1.59;100.00;102434.41;5002584;28;20137;-72
2023/02/15 00:44:07;;;;;;;105.25;37.15;;;;;;;-1.53;100.00;102436.00;5016902;28;20346;-72
2023/02/15 00:46:32;;;;;;;;;;;;;;;-1.58;100.00;102435.28;5021267;28;20099;-72
2023/02/15 00:48:58;;;;;;;102.78;34.67;;;;;;;-1.66;100.00;102426.75;4989475;28;19913;-72
2023/02/15 00:51:24;;;;;;;106.15;38.38;;;;;;;-1.72;100.00;102422.56;4972707;28;20117;-72
2023/02/15 00:53:49;;;;;;;1223.90;142.45;;;;;;;-1.74;100.00;102413.88;4989408;28;20141;-72
2023/02/15 00:56:15;;;;;;;164.65;41.72;;;;;;;-1.66;100.00;102416.28;5005552;28;20033;-72
2023/02/15 00:58:40;;;;;;;131.57;40.17;;;;;;;-1.68;100.00;102412.88;5019633;28;20037;-72
2023/02/15 01:01:11;;;;;;;874.05;90.32;;;;;;;-1.70;100.00;102411.13;4983492;28;20038;-72
2023/02/15 01:03:36;;;;;;;330.08;54.92;;;;;;;-1.55;100.00;102422.94;4991392;28;20078;-72
2023/02/15 01:06:02;;;;;;;124.10;41.78;;;;;;;-1.49;100.00;102427.16;5019540;28;20131;-72
2023/02/15 01:08:28;;;;;;;128.77;44.88;;;;;;;-1.54;100.00;102427.28;5021313;28;20038;-72
2023/02/15 01:10:54;;;;;;;122.55;39.28;;;;;;;-1.53;100.00;102436.84;5019576;28;20120;-72
2023/02/15 01:13:20;;;;;;;125.65;39.42;;;;;;;-1.54;100.00;102431.69;5003987;28;20053;-72
2023/02/15 01:15:45;;;;;;;108.00;39.72;;;;;;;-1.54;100.00;102431.69;4984733;28;20107;-72
2023/02/15 01:18:11;;;;;;;124.45;40.75;;;;;;;-1.61;100.00;102417.03;5003623;28;20037;-72
2023/02/15 01:20:38;;;;;;;119.10;41.75;;;;;;;-1.61;100.00;102415.28;5001386;28;20037;-72
2023/02/15 01:23:05;;;;;;;135.10;41.95;;;;;;;-1.54;100.00;102421.19;5019823;28;20033;-72
2023/02/15 01:25:33;;;;;;;124.50;40.95;;;;;;;-1.55;100.00;102414.22;5002288;28;20021;-72
2023/02/15 01:27:59;;;;;;;121.63;41.80;;;;;;;-1.55;100.00;102409.84;4988591;28;20034;-72
2023/02/15 01:30:25;;;;;;;127.28;40.55;;;;;;;-1.50;100.00;102409.69;5004595;28;20053;-72
2023/02/15 01:32:50;;;;;;;688.13;118.03;;;;;;;-1.45;100.00;102409.56;5002072;28;21146;-72
2023/02/15 01:35:15;;;;;;;732.95;84.55;;;;;;;-1.45;100.00;102406.94;5003028;28;20123;-72
2023/02/15 01:37:41;;;;;;;837.60;97.72;;;;;;;-1.36;100.00;102417.16;5000399;28;20051;-72
2023/02/15 01:40:11;;;;;;;669.67;77.88;;;;;;;-1.33;100.00;102415.34;5003013;28;20085;-72
2023/02/15 01:42:37;;;;;;;203.73;50.88;;;;;;;-1.33;100.00;102417.09;5001362;28;20128;-72
2023/02/15 01:45:13;;;;;;;620.70;78.47;;;;;;;-1.37;100.00;102415.47;5020139;28;20562;-72
2023/02/15 01:47:52;;;;;;;644.38;77.78;;;;;;;-1.48;100.00;102405.28;5002426;28;20128;-72
2023/02/15 01:50:31;;;;;;;650.33;80.93;;;;;;;-1.59;100.00;102395.13;4983887;28;20038;-71
2023/02/15 01:53:05;;;;;;;318.58;54.67;;;;;;;-1.52;100.00;102403.69;4981113;28;20621;-72
2023/02/15 01:55:43;;;;;;;175.60;49.80;;;;;;;-1.58;100.00;102394.22;4975249;28;20084;-72
2023/02/15 01:58:09;;;;;;;184.45;47.92;;;;;;;-1.53;100.00;102397.56;4982420;28;20091;-72
2023/02/15 02:00:35;;;;;;;131.82;40.20;;;;;;;-1.48;100.00;102405.28;4975407;28;20038;-72
2023/02/15 02:03:02;;;;;;;107.50;36.80;;;;;;;-1.39;100.00;102415.50;5019185;28;20110;-72
2023/02/15 02:05:29;;;;;;;103.80;36.85;;;;;;;-1.36;100.00;102418.06;4986080;28;20061;-72
2023/02/15 02:07:58;;;;;;;662.38;95.28;;;;;;;-1.33;100.00;102417.09;4988256;28;20026;-72
2023/02/15 02:10:25;;;;;;;282.83;45.70;;;;;;;-1.44;100.00;102406.91;4987575;28;20038;-72
2023/02/15 02:13:03;;;;;;;621.60;69.25;;;;;;;-1.55;100.00;102399.34;4999955;28;20041;-72
2023/02/15 02:15:55;;;;;;;189.57;43.38;;;;;;;-1.46;100.00;102398.25;5001619;28;20577;-72
2023/02/15 02:18:35;;;;;;;143.10;39.03;;;;;;;-1.43;100.00;102399.91;5009586;28;20041;-72
2023/02/15 02:21:22;;;;;;;452.63;61.55;;;;;;;-1.34;100.00;102395.25;4986527;28;20037;-72
2023/02/15 02:24:15;;;;;;;146.93;42.30;;;;;;;-1.25;100.00;102395.91;4989147;28;20041;-72
2023/02/15 02:27:05;;;;;;;186.18;44.72;;;;;;;-1.15;100.00;102398.22;4994924;28;20044;-72
2023/02/15 02:30:01;;;;;;;790.05;99.25;;;;;;;-1.10;100.00;102400.66;5015412;28;20037;-72
2023/02/15 02:32:45;;;;;;;79.18;28.58;;;;;;;-0.99;100.00;102398.56;4983403;28;20042;-72
2023/02/15 02:35:13;;;;;;;119.45;39.15;;;;;;;-0.98;100.00;102397.69;4998266;28;20059;-72
2023/02/15 02:38:09;;;;;;;120.45;39.38;;;;;;;-0.91;100.00;102398.34;4989431;28;20030;-72
2023/02/15 02:40:52;;;;;;;339.30;51.28;;;;;;;-0.80;100.00;102398.00;5013657;28;20130;-72
2023/02/15 02:43:27;;;;;;;95.35;35.47;;;;;;;-0.77;100.00;102397.88;4982746;28;20099;-72
2023/02/15 02:45:58;;;;;;;99.32;35.40;;;;;;;-0.77;100.00;102392.66;5001124;28;20383;-72
2023/02/15 02:48:27;;;;;;;214.32;42.03;;;;;;;-0.69;100.00;102388.03;5002273;28;20037;-72
2023/02/15 02:50:53;;;;;;;102.75;37.38;;;;;;;-0.67;100.00;102375.72;4988044;28;20507;-73
2023/02/15 02:53:18;;;;;;;91.15;34.40;;;;;;;-0.64;100.00;102378.25;5002616;28;20087;-72
2023/02/15 02:55:51;;;;;;;88.95;33.22;;;;;;;-0.60;100.00;102366.75;4999439;28;20052;-72
2023/02/15 02:58:21;;;;;;;85.05;34.95;;;;;;;-0.47;100.00;102375.06;5002247;28;20111;-73
2023/02/15 03:01:01;;;;;;;120.82;37.10;;;;;;;-0.47;100.00;102360.19;4999659;28;20046;-72
2023/02/15 03:03:29;;;;;;;107.78;34.90;;;;;;;-0.47;100.00;102359.31;5001729;28;20448;-72
2023/02/15 03:05:59;;;;;;;90.45;33.80;;;;;;;-0.44;100.00;102353.97;4972617;28;20034;-72
2023/02/15 03:08:29;;;;;;;91.68;33.92;;;;;;;-0.39;100.00;102359.06;5001826;28;20036;-72
2023/02/15 03:10:58;;;;;;;102.78;35.45;;;;;;;-0.38;100.00;102355.53;4986633;28;20475;-72
2023/02/15 03:13:24;;;;;;;87.90;33.70;;;;;;;-0.37;100.00;102349.38;4971096;28;20474;-72
2023/02/15 03:18:40;;;;;;;105.65;35.33;;;;;;;-0.32;100.00;102337.81;5000137;28;20041;-73
2023/02/15 03:21:08;;;;;;;440.70;58.03;;;;;;;-0.23;100.00;102339.25;5019814;28;20034;-72
2023/02/15 03:23:36;;;;;;;397.75;56.58;;;;;;;-0.16;100.00;102343.38;5018010;28;20108;-72
2023/02/15 03:26:06;;;;;;;283.73;53.95;;;;;;;-0.11;100.00;102336.19;4986621;28;20433;-73
2023/02/15 03:28:42;;;;;;;356.10;53.35;;;;;;;-0.06;100.00;102338.66;4971881;28;20025;-72
2023/02/15 03:31:09;;;;;;;410.85;62.20;;;;;;;-0.03;100.00;102336.75;5007570;28;20042;-73
2023/02/15 03:33:38;;;;;;;796.35;99.80;;;;;;;-0.06;100.00;102333.41;5018164;28;20084;-73
2023/02/15 03:36:18;;;;;;;326.58;60.33;;;;;;;-0.01;100.00;102334.09;4986641;28;20076;-72
2023/02/15 03:39:04;;;;;;;319.92;58.30;;;;;;;0.01;100.00;102320.91;4987840;28;20034;-72
2023/02/15 03:41:36;;;;;;;404.95;72.53;;;;;;;0.04;100.00;102318.16;5018356;28;20033;-73
2023/02/15 03:44:13;;;;;;;704.15;94.15;;;;;;;-0.07;100.00;102322.03;5013299;28;20144;-73
2023/02/15 03:47:08;;;;;;;663.40;81.05;;;;;;;-0.07;100.00;102327.28;5001062;28;20041;-73
2023/02/15 03:50:02;;;;;;;779.38;98.43;;;;;;;-0.07;100.00;102322.03;4991822;28;20115;-72
2023/02/15 03:52:29;;;;;;;593.33;86.75;;;;;;;-0.10;100.00;102319.50;4983795;28;20046;-74
2023/02/15 03:54:56;;;;;;;654.08;84.68;;;;;;;-0.09;100.00;102317.75;5014172;28;20056;-74
2023/02/15 04:03:35;;;;;;;402.42;57.95;;;;;;;0.01;100.00;102318.28;5006584;28;20038;-73
2023/02/15 04:06:02;;;;;;;603.35;81.30;;;;;;;-0.08;100.00;102322.94;5000139;28;20034;-73
2023/02/15 04:11:12;;;;;;;269.55;53.08;;;;;;;-0.07;100.00;102315.91;5017936;28;20126;-74
2023/02/15 04:13:38;;;;;;;454.67;69.85;;;;;;;-0.18;100.00;102308.44;5020876;28;20494;-74
2023/02/15 04:16:03;;;;;;;;;;;;;;;-0.14;100.00;102317.94;5022341;28;20041;-73
2023/02/15 04:26:55;;;;;;;318.93;46.07;;;;;;;-0.28;100.00;102294.78;5019761;28;20464;-73
2023/02/15 04:29:23;;;;;;;568.28;67.53;;;;;;;-0.37;100.00;102289.03;5022226;28;20030;-74
2023/02/15 04:31:49;;;;;;;673.83;83.47;;;;;;;-0.55;100.00;102282.63;5002078;28;20050;-73
2023/02/15 04:34:14;;;;;;;;;;;;;;;-0.60;100.00;102280.16;5022798;28;20433;-73
2023/02/15 04:36:40;;;;;;;652.83;86.45;;;;;;;-0.61;100.00;102281.06;5002256;28;19917;-73
2023/02/15 04:39:06;;;;;;;187.80;48.35;;;;;;;-0.51;100.00;102285.09;5021726;28;20517;-74
2023/02/15 04:41:32;;;;;;;233.48;50.20;;;;;;;-0.43;100.00;102283.06;5003226;28;20029;-73
2023/02/15 04:43:59;;;;;;;330.58;59.15;;;;;;;-0.44;100.00;102285.75;4989181;28;20030;-73
2023/02/15 04:46:24;;;;;;;359.95;59.00;;;;;;;-0.38;100.00;102287.28;4989269;28;20056;-74
2023/02/15 04:48:50;;;;;;;323.73;55.65;;;;;;;-0.31;100.00;102284.38;5018772;28;20022;-73
2023/02/15 04:51:15;;;;;;;443.25;55.05;;;;;;;-0.40;100.00;102281.22;5004106;28;20491;-74
2023/02/15 04:53:41;;;;;;;330.17;58.25;;;;;;;-0.43;100.00;102287.44;5020505;28;20072;-73
2023/02/15 04:56:06;;;;;;;293.15;50.38;;;;;;;-0.48;100.00;102284.97;4989029;28;20415;-73
2023/02/15 04:58:31;;;;;;;509.20;65.23;;;;;;;-0.53;100.00;102286.91;5006024;28;20080;-74
2023/02/15 05:00:57;;;;;;;241.75;48.65;;;;;;;-0.46;100.00;102292.81;4974764;28;20284;-74
2023/02/15 05:03:23;;;;;;;295.08;57.90;;;;;;;-0.41;100.00;102290.88;5021755;28;20033;-74
2023/02/15 05:05:48;;;;;;;460.50;59.15;;;;;;;-0.43;100.00;102288.28;5001316;28;20030;-74
2023/02/15 05:08:14;;;;;;;319.00;48.45;;;;;;;-0.42;100.00;102289.19;4987817;28;20040;-73
2023/02/15 05:10:39;;;;;;;565.25;69.70;;;;;;;-0.46;100.00;102287.56;5002807;28;20132;-74
2023/02/15 05:13:04;;;;;;;545.35;71.68;;;;;;;-0.55;100.00;102282.63;4987729;28;20033;-73
2023/02/15 05:15:30;;;;;;;333.65;51.78;;;;;;;-0.51;100.00;102285.09;4972821;28;20491;-73
2023/02/15 05:17:55;;;;;;;656.80;78.53;;;;;;;-0.65;100.00;102268.97;5019940;28;20171;-74
2023/02/15 05:20:21;;;;;;;112.65;37.70;;;;;;;-0.63;100.00;102275.03;5021453;28;20029;-73
2023/02/15 05:22:46;;;;;;;549.05;66.75;;;;;;;-0.78;100.00;102265.06;5001802;28;20547;-73
2023/02/15 05:30:40;;;;;;;556.28;66.35;;;;;;;-0.89;100.00;102253.19;5018953;28;20373;-73
2023/02/15 05:33:06;;;;;;;306.40;48.90;;;;;;;-0.86;100.00;102242.56;5019987;28;20427;-74
2023/02/15 05:35:34;;;;;;;291.85;47.35;;;;;;;-0.72;100.00;102244.72;5002567;28;20306;-73
2023/02/15 05:37:59;;;;;;;273.98;48.05;;;;;;;-0.65;100.00;102237.50;5015229;28;20030;-74
2023/02/15 05:40:24;;;;;;;623.72;67.35;;;;;;;-0.86;100.00;102229.47;5002915;28;20401;-73
2023/02/15 05:42:50;;;;;;;391.83;55.08;;;;;;;-1.02;100.00;102236.13;5019986;28;20037;-74
2023/02/15 05:45:15;;;;;;;460.88;53.45;;;;;;;-1.09;100.00;102235.47;5020829;28;20298;-73
2023/02/15 05:47:41;;;;;;;504.45;57.55;;;;;;;-1.01;100.00;102229.97;5001991;28;20528;-73
2023/02/15 05:50:08;;;;;;;771.78;82.38;;;;;;;-0.96;100.00;102216.72;5010263;28;20045;-73
2023/02/15 05:52:34;;;;;;;278.95;44.22;;;;;;;-0.94;100.00;102223.59;5019290;28;20498;-73
2023/02/15 05:55:00;;;;;;;;;;;;;;;-0.84;100.00;102234.66;5018703;28;20037;-74
2023/02/15 05:57:26;;;;;;;501.75;64.22;;;;;;;-0.99;100.00;102227.31;5019388;28;20365;-73
2023/02/15 05:59:51;;;;;;;757.55;81.47;;;;;;;-1.10;100.00;102214.53;4973167;28;20082;-74
2023/02/15 06:02:17;;;;;;;240.95;43.42;;;;;;;-0.96;100.00;102229.81;5005194;28;20033;-73
2023/02/15 06:04:42;;;;;;;494.30;59.65;;;;;;;-0.97;100.00;102223.72;5004027;28;20068;-73
2023/02/15 06:07:08;;;;;;;660.65;77.00;;;;;;;-1.22;100.00;102217.59;5005246;28;20013;-73
2023/02/15 06:09:33;;;;;;;533.33;63.28;;;;;;;-1.34;100.00;102210.97;4991404;28;20025;-73
2023/02/15 06:11:58;;;;;;;300.30;45.15;;;;;;;-1.14;100.00;102215.59;5006064;28;20627;-73
2023/02/15 06:14:24;;;;;;;500.20;60.50;;;;;;;-1.29;100.00;102214.31;5007059;28;20096;-73
2023/02/15 06:16:49;;;;;;;366.85;53.30;;;;;;;-1.23;100.00;102213.25;4989260;28;20052;-73
2023/02/15 06:19:14;;;;;;;278.50;41.67;;;;;;;-1.07;100.00;102217.94;5005466;28;20447;-73
2023/02/15 06:21:40;;;;;;;307.00;44.60;;;;;;;-1.03;100.00;102228.31;5003068;28;20037;-73
2023/02/15 06:24:05;;;;;;;630.75;75.57;;;;;;;-1.05;100.00;102236.25;4988088;28;20135;-73
2023/02/15 06:26:31;;;;;;;474.85;63.75;;;;;;;-1.02;100.00;102236.13;4988460;28;20038;-73
2023/02/15 06:28:56;;;;;;;349.00;49.47;;;;;;;-1.03;100.00;102244.94;4980500;28;20038;-73
2023/02/15 06:31:21;;;;;;;247.43;44.72;;;;;;;-0.99;100.00;102236.03;4993517;28;20037;-74
2023/02/15 06:33:47;;;;;;;574.28;77.85;;;;;;;-0.89;100.00;102245.31;5000206;28;20044;-72
2023/02/15 06:36:12;;;;;;;242.70;44.38;;;;;;;-0.80;100.00;102246.75;5003449;28;20173;-75
2023/02/15 06:38:38;;;;;;;150.95;37.85;;;;;;;-0.86;100.00;102250.44;5000907;28;20096;-73
2023/02/15 06:41:03;;;;;;;424.65;63.63;;;;;;;-0.91;100.00;102252.38;5018698;28;20037;-73
2023/02/15 06:43:29;;;;;;;263.65;44.65;;;;;;;-0.89;100.00;102247.94;5015764;28;20030;-74
2023/02/15 06:45:54;;;;;;;227.07;46.78;;;;;;;-0.78;100.00;102257.19;5000659;28;20479;-75
2023/02/15 06:48:19;;;;;;;281.40;46.45;;;;;;;-0.76;100.00;102252.75;5019734;28;20109;-72
2023/02/15 06:50:45;;;;;;;478.33;58.95;;;;;;;-0.77;100.00;102246.66;5013143;28;20483;-72
2023/02/15 06:53:10;;;;;;;587.10;69.60;;;;;;;-0.96;100.00;102245.53;5022720;28;20041;-74
2023/02/15 06:55:36;;;;;;;295.65;43.28;;;;;;;-0.91;100.00;102238.41;5021823;28;20029;-72
2023/02/15 06:58:01;;;;;;;593.92;62.63;;;;;;;-0.90;100.00;102230.47;5022308;28;20107;-76
2023/02/15 07:00:27;;;;;;;345.33;51.33;;;;;;;-0.89;100.00;102237.44;5016113;28;20045;-78
2023/02/15 07:02:57;;;;;;;273.65;44.10;;;;;;;-0.93;100.00;102234.97;4988924;28;20104;-75
2023/02/15 07:05:23;;;;;;;363.77;49.75;;;;;;;-0.92;100.00;102234.91;5015400;28;20049;-74
2023/02/15 07:07:49;;;;;;;125.93;37.38;;;;;;;-0.83;100.00;102231.13;5008074;28;20022;-73
2023/02/15 07:10:14;;;;;;;641.97;69.85;;;;;;;-0.86;100.00;102226.84;5021369;28;20064;-73
2023/02/15 07:12:44;;;;;;;457.63;59.25;;;;;;;-0.88;100.00;102223.41;5014061;28;20038;-74
2023/02/15 07:15:11;;;;;;;520.00;65.53;;;;;;;-0.95;100.00;102219.28;5013467;28;20033;-72
2023/02/15 07:17:37;;;;;;;665.97;81.00;;;;;;;-1.07;100.00;102198.75;4996952;28;20038;-73
2023/02/15 07:20:08;;;;;;;671.42;76.68;;;;;;;-1.01;100.00;102211.63;4986568;28;20459;-75
2023/02/15 07:22:35;;;;;;;398.50;53.58;;;;;;;-0.95;100.00;102207.94;4971540;28;20052;-73
2023/02/15 07:25:03;;;;;;;247.93;43.22;;;;;;;-0.94;100.00;102201.78;5018919;28;20140;-74
2023/02/15 07:27:29;;;;;;;662.35;73.70;;;;;;;-1.04;100.00;102200.41;5001554;28;20029;-73
2023/02/15 07:29:54;;;;;;;675.97;76.32;;;;;;;-0.96;100.00;102204.47;4972433;28;20103;-72
2023/02/15 07:32:19;;;;;;;325.40;48.72;;;;;;;-0.96;100.00;102201.84;5019552;28;20375;-72
2023/02/15 07:34:45;;;;;;;367.98;53.42;;;;;;;-0.87;100.00;102209.41;4999996;28;20076;-72
2023/02/15 07:37:10;;;;;;;511.33;57.75;;;;;;;-0.90;100.00;102209.50;5023495;28;20037;-72
2023/02/15 07:39:35;;;;;;;656.53;77.28;;;;;;;-0.92;100.00;102203.44;5004418;28;20038;-74
2023/02/15 07:42:01;;;;;;;223.80;41.30;;;;;;;-0.89;100.00;102198.13;4990654;28;20550;-75
2023/02/15 07:44:30;;;;;;;447.27;51.45;;;;;;;-0.96;100.00;102190.50;4991394;28;20356;-75
2023/02/15 07:46:56;;;;;;;164.32;37.72;;;;;;;-0.79;100.00;102190.78;5005613;28;20069;-71
2023/02/15 07:49:21;;;;;;;235.70;43.63;;;;;;;-0.80;100.00;102198.69;5023930;28;20476;-71
2023/02/15 07:51:47;;;;;;;148.65;38.55;;;;;;;-0.71;100.00;102193.97;5003010;28;20490;-71
2023/02/15 07:54:12;;;;;;;423.70;52.25;;;;;;;-0.69;100.00;102197.41;5023124;28;20045;-72
2023/02/15 07:56:38;;;;;;;320.33;50.55;;;;;;;-0.73;100.00;102192.31;5003901;28;20091;-72
2023/02/15 07:59:04;;;;;;;287.38;41.95;;;;;;;-0.65;100.00;102188.50;4993248;28;20040;-72
2023/02/15 08:01:36;;;;;;;510.15;65.25;;;;;;;-0.61;100.00;102189.25;5004790;28;20446;-72
2023/02/15 08:04:03;;;;;;;367.30;45.55;;;;;;;-0.62;100.00;102177.06;5022853;28;20029;-71
2023/02/15 08:06:31;;;;;;;409.23;64.47;;;;;;;-0.40;100.00;102181.50;5022661;28;20037;-73
2023/02/15 08:08:56;;;;;;;421.23;54.97;;;;;;;-0.47;100.00;102181.75;5016761;28;20129;-70
2023/02/15 08:11:33;;;;;;;466.70;51.95;;;;;;;-0.47;100.00;102180.88;5005254;28;20136;-71
2023/02/15 08:14:18;;;;;;;239.05;40.50;;;;;;;-0.59;100.00;102179.56;4992971;28;20092;-72
2023/02/15 08:16:52;;;;;;;308.13;44.38;;;;;;;-0.47;100.00;102181.75;5002892;28;20036;-72
2023/02/15 08:19:28;;;;;;;158.02;35.28;;;;;;;-0.59;100.00;102173.47;5005636;28;20406;-73
2023/02/15 08:21:59;;;;;;;435.73;54.75;;;;;;;-0.58;100.00;102164.69;5003624;28;20034;-72
2023/02/15 08:24:27;;;;;;;532.38;64.18;;;;;;;-0.49;100.00;102169.59;5005171;28;20091;-72
2023/02/15 08:26:53;;;;;;;245.30;39.30;;;;;;;-0.40;100.00;102160.53;5020287;28;20029;-72
2023/02/15 08:29:22;;;;;;;151.48;34.72;;;;;;;-0.39;100.00;102157.00;5022634;28;20037;-73
2023/02/15 08:31:48;;;;;;;449.20;54.42;;;;;;;-0.72;100.00;102159.94;5002301;28;20084;-72
2023/02/15 08:34:16;;;;;;;226.40;43.50;;;;;;;-0.54;100.00;102161.03;5022416;28;20382;-71
2023/02/15 08:36:44;;;;;;;351.08;45.95;;;;;;;-0.55;100.00;102154.94;5002376;28;20033;-71
2023/02/15 08:39:11;;;;;;;515.42;52.88;;;;;;;-0.44;100.00;102149.31;5004658;28;20043;-72
2023/02/15 08:41:38;;;;;;;640.20;73.53;;;;;;;-0.68;100.00;102151.03;5020823;28;20041;-73
2023/02/15 08:44:06;;;;;;;237.77;41.08;;;;;;;-0.56;100.00;102149.72;5020848;28;20033;-73
2023/02/15 08:46:34;;;;;;;247.80;42.63;;;;;;;-0.35;100.00;102153.31;5004601;28;20044;-71
2023/02/15 08:49:00;;;;;;;421.48;56.45;;;;;;;-0.28;100.00;102139.94;5020103;28;20532;-72
2023/02/15 08:51:29;;;;;;;350.38;53.20;;;;;;;-0.38;100.00;102133.31;5004566;28;20478;-71
2023/02/15 08:53:57;;;;;;;323.98;48.55;;;;;;;-0.11;100.00;102136.66;4997933;28;20026;-73
2023/02/15 08:56:32;;;;;;;311.55;42.78;;;;;;;-0.22;100.00;102134.44;5004415;28;20044;-73
2023/02/15 08:58:58;;;;;;;491.27;59.38;;;;;;;-0.03;100.00;102138.97;4998153;28;20034;-72
2023/02/15 09:01:26;;;;;;;211.90;40.55;;;;;;;0.13;100.00;102119.06;5021930;28;20098;-73
2023/02/15 09:03:55;;;;;;;269.83;39.97;;;;;;;0.01;100.00;102127.44;4999832;28;20048;-71
2023/02/15 09:06:22;;;;;;;293.30;43.10;;;;;;;0.01;100.00;102118.72;4987771;28;20505;-72
2023/02/15 09:08:48;;;;;;;332.85;43.28;;;;;;;-0.01;100.00;102122.25;5016052;28;20021;-73
2023/02/15 09:11:25;;;;;;;216.75;35.30;;;;;;;-0.14;100.00;102107.91;5019964;28;20033;-73
2023/02/15 09:13:56;;;;;;;373.70;43.67;;;;;;;-0.16;100.00;102106.25;5000740;28;20088;-72
2023/02/15 09:16:24;;;;;;;555.05;61.35;;;;;;;-0.04;100.00;102105.75;5003978;28;20033;-73
2023/02/15 09:18:50;;;;;;;271.50;40.83;;;;;;;0.09;100.00;102108.75;5019210;28;20112;-72
2023/02/15 09:21:18;;;;;;;583.00;57.63;;;;;;;0.09;100.00;102106.97;5003713;28;20677;-71
2023/02/15 09:23:45;;;;;;;392.38;43.53;;;;;;;0.20;100.00;102109.16;5014506;28;20410;-72
2023/02/15 09:26:14;;;;;;;523.28;66.22;;;;;;;0.19;100.00;102104.84;5003504;28;20035;-72
2023/02/15 09:28:40;;;;;;;278.10;40.30;;;;;;;0.37;100.00;102111.09;5020438;28;20470;-73
2023/02/15 09:31:09;;;;;;;385.50;48.85;;;;;;;0.19;100.00;102099.59;5021096;28;20531;-71
2023/02/15 09:33:36;;;;;;;445.70;52.65;;;;;;;0.32;100.00;102106.03;4986157;28;20042;-72
2023/02/15 09:36:03;;;;;;;224.48;38.58;;;;;;;0.49;100.00;102115.88;5019149;28;20038;-71
2023/02/15 09:38:29;;;;;;;212.23;36.97;;;;;;;0.65;100.00;102116.06;5003079;28;20018;-72
2023/02/15 09:41:17;;;;;;;221.45;38.67;;;;;;;0.59;100.00;102116.34;4989943;28;20041;-72
2023/02/15 09:43:57;;;;;;;257.02;37.90;;;;;;;0.65;100.00;102117.84;5001257;28;20458;-73
2023/02/15 09:46:41;;;;;;;229.55;41.25;;;;;;;0.66;100.00;102117.78;5003437;28;20041;-73
2023/02/15 09:49:20;;;;;;;318.95;46.10;;;;;;;0.87;100.00;102113.38;4998858;28;20487;-73
2023/02/15 09:52:13;;;;;;;223.57;39.08;;;;;;;0.78;100.00;102108.53;5019007;28;20042;-72
2023/02/15 09:54:57;;;;;;;119.72;31.33;;;;;;;0.95;100.00;102118.31;5001218;28;20124;-73
2023/02/15 09:57:57;;;;;;;285.85;47.38;;;;;;;0.59;100.00;102106.69;5013852;28;20061;-73
2023/02/15 10:00:35;;;;;;;213.30;38.55;;;;;;;0.82;100.00;102113.59;4998144;28;20037;-72
2023/02/15 10:03:23;;;;;;;145.50;32.97;;;;;;;1.04;100.00;102117.91;4989713;28;20049;-71
2023/02/15 10:06:32;;;;;;;143.00;32.58;;;;;;;1.12;100.00;102121.03;5005629;28;20498;-73
2023/02/15 10:09:19;;;;;;;248.32;39.38;;;;;;;1.13;100.00;102112.25;4983093;28;20435;-73
2023/02/15 10:12:24;;;;;;;470.20;54.53;;;;;;;0.98;100.00;102107.63;5000664;28;20128;-72
2023/02/15 10:15:13;;;;;;;366.10;48.25;;;;;;;0.77;100.00;102099.78;5003800;28;20034;-71
2023/02/15 10:17:55;;;;;;;117.68;31.75;;;;;;;1.10;100.00;102091.34;4996459;28;20550;-72
2023/02/15 10:20:44;;;;;;;282.00;39.30;;;;;;;1.18;100.00;102102.34;4988293;28;20069;-72
2023/02/15 10:23:27;;;;;;;148.90;33.53;;;;;;;1.21;100.00;102096.09;4994385;28;20066;-73
2023/02/15 10:26:16;;;;;;;145.45;34.67;;;;;;;1.16;100.00;102085.78;4987626;28;20033;-71
2023/02/15 10:29:08;;;;;;;113.43;31.77;;;;;;;1.22;100.00;102093.41;4989126;28;20476;-73
2023/02/15 10:31:47;;;;;;;205.20;36.50;;;;;;;1.17;100.00;102094.53;5004521;28;20113;-73
2023/02/15 10:34:22;;;;;;;111.80;32.45;;;;;;;1.19;100.00;102101.41;4983557;28;20141;-73
2023/02/15 10:37:12;;;;;;;163.10;35.15;;;;;;;1.17;100.00;102097.16;4975126;28;20041;-73
2023/02/15 10:40:12;;;;;;;187.00;37.53;;;;;;;1.16;100.00;102088.41;4997036;28;20060;-74
2023/02/15 10:43:09;;;;;;;272.70;37.97;;;;;;;1.22;100.00;102084.69;4986283;28;20037;-74
2023/02/15 10:45:56;;;;;;;224.55;37.90;;;;;;;1.51;100.00;102098.28;5016465;28;20094;-73
2023/02/15 10:48:47;;;;;;;147.27;31.77;;;;;;;1.45;100.00;102081.84;5002135;28;20442;-73
2023/02/15 10:51:26;;;;;;;187.93;33.97;;;;;;;1.54;100.00;102080.53;5006101;28;20703;-73
2023/02/15 10:54:09;;;;;;;71.38;29.48;;;;;;;1.76;100.00;102085.66;5003711;28;20491;-72
2023/02/15 10:57:15;;;;;;;186.32;41.22;;;;;;;1.60;100.00;102082.91;5011358;28;20077;-73
2023/02/15 10:59:47;;;;;;;176.10;35.25;;;;;;;1.81;100.00;102082.81;4985989;28;20045;-72
2023/02/15 11:02:31;;;;;;;94.65;30.75;;;;;;;1.95;100.00;102085.63;4982414;28;20046;-72
2023/02/15 11:05:20;;;;;;;125.07;31.80;;;;;;;1.89;100.00;102073.59;4995042;28;20037;-73
2023/02/15 11:07:48;;;;;;;139.23;34.10;;;;;;;1.97;100.00;102064.50;5012681;28;20033;-71
2023/02/15 11:10:27;;;;;;;160.52;37.08;;;;;;;1.67;100.00;102051.88;5006583;28;20497;-72
2023/02/15 11:12:55;;;;;;;170.95;31.80;;;;;;;1.82;100.00;102052.91;4993189;28;20399;-73
2023/02/15 11:15:29;;;;;;;143.15;34.05;;;;;;;2.05;100.00;102059.69;5025782;28;20120;-72
2023/02/15 11:18:32;;;;;;;75.20;29.75;;;;;;;2.35;100.00;102059.13;5007885;28;20809;-71
2023/02/15 11:21:08;;;;;;;116.78;33.78;;;;;;;2.34;100.00;102050.31;4991239;28;20289;-73
2023/02/15 11:23:40;;;;;;;246.98;40.15;;;;;;;2.13;100.00;102038.22;4976030;28;20041;-72
2023/02/15 11:26:13;;;;;;;330.02;42.08;;;;;;;1.86;100.00;102031.63;5015877;28;20053;-73
2023/02/15 11:28:59;;;;;;;219.88;37.97;;;;;;;1.76;100.00;102019.84;5011850;28;20040;-72
2023/02/15 11:31:27;;;;;;;196.23;35.03;;;;;;;1.70;100.00;102017.50;5010666;28;20046;-72
2023/02/15 11:34:01;;;;;;;162.73;35.17;;;;;;;1.88;100.00;102026.28;5010245;28;20024;-72
2023/02/15 11:36:40;;;;;;;106.47;31.25;;;;;;;2.03;100.00;102035.22;5008236;28;20060;-73
2023/02/15 11:39:15;;;;;;;111.80;32.15;;;;;;;2.19;100.00;102027.41;4991691;28;20049;-72